sensor_id;sensor_type;location;lat;lon;timestamp;P1;durP1;ratioP1;P2;durP2;ratioP2
5774;SDS011;2913;51.120;6.772;2022-09-13T00:02:12;13.77;;;5.90;;
5774;SDS011;2913;51.120;6.772;2022-09-13T00:04:38;12.75;;;6.45;;
5774;SDS011;2913;51.120;6.772;2022-09-13T00:07:04;17.75;;;7.68;;
5774;SDS011;2913;51.120;6.772;2022-09-13T00:09:29;19.83;;;7.32;;
5774;SDS011;2913;51.120;6.772;2022-09-13T00:11:55;14.07;;;6.50;;
5774;SDS011;2913;51.120;6.772;2022-09-13T00:14:20;14.88;;;6.43;;
5774;SDS011;2913;51.120;6.772;2022-09-13T00:16:46;11.52;;;6.60;;
5774;SDS011;2913;51.120;6.772;2022-09-13T00:19:12;12.65;;;6.50;;
5774;SDS011;2913;51.120;6.772;2022-09-13T00:21:37;18.20;;;6.28;;
5774;SDS011;2913;51.120;6.772;2022-09-13T00:24:03;13.30;;;6.15;;
5774;SDS011;2913;51.120;6.772;2022-09-13T00:26:29;12.30;;;6.30;;
5774;SDS011;2913;51.120;6.772;2022-09-13T00:28:57;13.85;;;5.82;;
5774;SDS011;2913;51.120;6.772;2022-09-13T00:31:26;11.90;;;6.38;;
5774;SDS011;2913;51.120;6.772;2022-09-13T00:33:52;11.52;;;6.53;;
5774;SDS011;2913;51.120;6.772;2022-09-13T00:36:18;12.93;;;6.43;;
5774;SDS011;2913;51.120;6.772;2022-09-13T00:38:46;13.07;;;6.40;;
5774;SDS011;2913;51.120;6.772;2022-09-13T00:41:15;17.25;;;6.50;;
5774;SDS011;2913;51.120;6.772;2022-09-13T00:46:12;14.15;;;6.78;;
5774;SDS011;2913;51.120;6.772;2022-09-13T00:48:48;13.27;;;6.25;;
5774;SDS011;2913;51.120;6.772;2022-09-13T00:51:17;19.50;;;6.57;;
5774;SDS011;2913;51.120;6.772;2022-09-13T00:53:46;12.63;;;6.47;;
5774;SDS011;2913;51.120;6.772;2022-09-13T00:56:18;14.85;;;6.35;;
5774;SDS011;2913;51.120;6.772;2022-09-13T00:58:56;15.80;;;6.32;;
5774;SDS011;2913;51.120;6.772;2022-09-13T01:01:41;12.63;;;6.78;;
5774;SDS011;2913;51.120;6.772;2022-09-13T01:04:11;14.80;;;6.43;;
5774;SDS011;2913;51.120;6.772;2022-09-13T01:06:37;10.63;;;6.53;;
5774;SDS011;2913;51.120;6.772;2022-09-13T01:09:05;13.13;;;5.95;;
5774;SDS011;2913;51.120;6.772;2022-09-13T01:14:19;17.75;;;6.88;;
5774;SDS011;2913;51.120;6.772;2022-09-13T01:16:49;15.10;;;5.95;;
5774;SDS011;2913;51.120;6.772;2022-09-13T01:19:14;18.50;;;6.28;;
5774;SDS011;2913;51.120;6.772;2022-09-13T01:38:52;20.33;;;7.22;;
5774;SDS011;2913;51.120;6.772;2022-09-13T01:44:04;15.80;;;7.00;;
5774;SDS011;2913;51.120;6.772;2022-09-13T01:46:46;13.18;;;7.68;;
5774;SDS011;2913;51.120;6.772;2022-09-13T01:49:51;15.25;;;7.30;;
5774;SDS011;2913;51.120;6.772;2022-09-13T01:52:29;16.23;;;7.45;;
5774;SDS011;2913;51.120;6.772;2022-09-13T01:55:53;16.42;;;7.18;;
5774;SDS011;2913;51.120;6.772;2022-09-13T02:00:37;15.95;;;7.35;;
5774;SDS011;2913;51.120;6.772;2022-09-13T02:03:22;16.48;;;6.93;;
5774;SDS011;2913;51.120;6.772;2022-09-13T02:06:40;25.95;;;7.47;;
5774;SDS011;2913;51.120;6.772;2022-09-13T02:08:53;21.83;;;7.97;;
5774;SDS011;2913;51.120;6.772;2022-09-13T02:11:22;12.55;;;7.28;;
5774;SDS011;2913;51.120;6.772;2022-09-13T02:13:50;17.17;;;6.93;;
5774;SDS011;2913;51.120;6.772;2022-09-13T02:16:33;12.35;;;6.88;;
5774;SDS011;2913;51.120;6.772;2022-09-13T02:19:06;22.70;;;7.60;;
5774;SDS011;2913;51.120;6.772;2022-09-13T02:21:45;25.00;;;7.60;;
5774;SDS011;2913;51.120;6.772;2022-09-13T02:24:17;31.10;;;7.95;;
5774;SDS011;2913;51.120;6.772;2022-09-13T02:26:46;13.70;;;7.03;;
5774;SDS011;2913;51.120;6.772;2022-09-13T02:29:18;17.35;;;7.18;;
5774;SDS011;2913;51.120;6.772;2022-09-13T02:31:57;14.82;;;7.88;;
5774;SDS011;2913;51.120;6.772;2022-09-13T02:34:37;20.70;;;7.18;;
5774;SDS011;2913;51.120;6.772;2022-09-13T02:37:08;13.57;;;7.10;;
5774;SDS011;2913;51.120;6.772;2022-09-13T02:39:37;19.05;;;7.72;;
5774;SDS011;2913;51.120;6.772;2022-09-13T02:42:16;16.70;;;7.28;;
5774;SDS011;2913;51.120;6.772;2022-09-13T02:44:46;20.13;;;8.00;;
5774;SDS011;2913;51.120;6.772;2022-09-13T02:50:06;14.63;;;6.97;;
5774;SDS011;2913;51.120;6.772;2022-09-13T03:01:08;16.77;;;7.85;;
5774;SDS011;2913;51.120;6.772;2022-09-13T03:03:35;16.55;;;7.68;;
5774;SDS011;2913;51.120;6.772;2022-09-13T03:06:03;17.23;;;7.50;;
5774;SDS011;2913;51.120;6.772;2022-09-13T03:08:31;24.10;;;7.97;;
5774;SDS011;2913;51.120;6.772;2022-09-13T03:16:38;16.52;;;7.57;;
5774;SDS011;2913;51.120;6.772;2022-09-13T03:24:45;19.02;;;7.20;;
5774;SDS011;2913;51.120;6.772;2022-09-13T03:30:03;19.00;;;7.70;;
5774;SDS011;2913;51.120;6.772;2022-09-13T03:32:43;19.80;;;7.78;;
5774;SDS011;2913;51.120;6.772;2022-09-13T03:45:49;15.43;;;7.78;;
5774;SDS011;2913;51.120;6.772;2022-09-13T03:48:24;17.13;;;7.93;;
5774;SDS011;2913;51.120;6.772;2022-09-13T03:50:51;17.17;;;7.43;;
5774;SDS011;2913;51.120;6.772;2022-09-13T03:53:19;13.23;;;7.22;;
5774;SDS011;2913;51.120;6.772;2022-09-13T03:55:48;23.60;;;8.15;;
5774;SDS011;2913;51.120;6.772;2022-09-13T03:58:14;16.00;;;8.45;;
5774;SDS011;2913;51.120;6.772;2022-09-13T04:00:47;26.35;;;7.78;;
5774;SDS011;2913;51.120;6.772;2022-09-13T04:03:13;14.80;;;7.05;;
5774;SDS011;2913;51.120;6.772;2022-09-13T04:05:39;23.30;;;8.15;;
5774;SDS011;2913;51.120;6.772;2022-09-13T04:08:05;15.00;;;8.07;;
5774;SDS011;2913;51.120;6.772;2022-09-13T04:10:32;16.80;;;7.63;;
5774;SDS011;2913;51.120;6.772;2022-09-13T04:12:59;22.27;;;7.35;;
5774;SDS011;2913;51.120;6.772;2022-09-13T04:15:25;18.45;;;8.20;;
5774;SDS011;2913;51.120;6.772;2022-09-13T04:17:52;15.40;;;8.20;;
5774;SDS011;2913;51.120;6.772;2022-09-13T04:20:18;17.42;;;8.23;;
5774;SDS011;2913;51.120;6.772;2022-09-13T04:22:52;17.55;;;8.77;;
5774;SDS011;2913;51.120;6.772;2022-09-13T04:25:21;18.15;;;8.38;;
5774;SDS011;2913;51.120;6.772;2022-09-13T04:27:48;20.50;;;8.68;;
5774;SDS011;2913;51.120;6.772;2022-09-13T04:30:20;20.70;;;8.75;;
5774;SDS011;2913;51.120;6.772;2022-09-13T04:32:49;28.92;;;8.35;;
5774;SDS011;2913;51.120;6.772;2022-09-13T04:35:14;19.88;;;8.30;;
5774;SDS011;2913;51.120;6.772;2022-09-13T04:37:41;16.25;;;7.78;;
5774;SDS011;2913;51.120;6.772;2022-09-13T04:40:08;15.80;;;7.22;;
5774;SDS011;2913;51.120;6.772;2022-09-13T04:42:37;18.30;;;8.27;;
5774;SDS011;2913;51.120;6.772;2022-09-13T04:45:03;13.55;;;7.43;;
5774;SDS011;2913;51.120;6.772;2022-09-13T04:47:30;14.10;;;7.78;;
5774;SDS011;2913;51.120;6.772;2022-09-13T04:49:56;25.67;;;7.38;;
5774;SDS011;2913;51.120;6.772;2022-09-13T04:52:22;16.00;;;8.05;;
5774;SDS011;2913;51.120;6.772;2022-09-13T04:54:47;14.57;;;7.75;;
5774;SDS011;2913;51.120;6.772;2022-09-13T04:57:14;17.40;;;7.50;;
5774;SDS011;2913;51.120;6.772;2022-09-13T04:59:40;12.88;;;7.75;;
5774;SDS011;2913;51.120;6.772;2022-09-13T05:02:07;12.43;;;6.60;;
5774;SDS011;2913;51.120;6.772;2022-09-13T05:04:32;15.70;;;8.15;;
5774;SDS011;2913;51.120;6.772;2022-09-13T05:07:01;15.73;;;7.78;;
5774;SDS011;2913;51.120;6.772;2022-09-13T05:09:29;14.60;;;8.18;;
5774;SDS011;2913;51.120;6.772;2022-09-13T05:11:54;14.32;;;7.45;;
5774;SDS011;2913;51.120;6.772;2022-09-13T05:14:22;17.90;;;7.88;;
5774;SDS011;2913;51.120;6.772;2022-09-13T05:16:48;17.15;;;8.88;;
5774;SDS011;2913;51.120;6.772;2022-09-13T05:19:13;20.40;;;8.82;;
5774;SDS011;2913;51.120;6.772;2022-09-13T05:21:39;18.70;;;8.25;;
5774;SDS011;2913;51.120;6.772;2022-09-13T05:24:07;18.58;;;8.57;;
5774;SDS011;2913;51.120;6.772;2022-09-13T05:26:34;18.33;;;8.52;;
5774;SDS011;2913;51.120;6.772;2022-09-13T05:29:00;18.75;;;8.35;;
5774;SDS011;2913;51.120;6.772;2022-09-13T05:31:33;18.33;;;7.50;;
5774;SDS011;2913;51.120;6.772;2022-09-13T05:34:01;17.33;;;8.15;;
5774;SDS011;2913;51.120;6.772;2022-09-13T05:36:37;16.02;;;9.02;;
5774;SDS011;2913;51.120;6.772;2022-09-13T05:39:06;20.63;;;9.35;;
5774;SDS011;2913;51.120;6.772;2022-09-13T05:41:36;18.17;;;8.48;;
5774;SDS011;2913;51.120;6.772;2022-09-13T05:44:02;19.80;;;8.60;;
5774;SDS011;2913;51.120;6.772;2022-09-13T05:46:28;17.90;;;9.00;;
5774;SDS011;2913;51.120;6.772;2022-09-13T05:48:56;15.40;;;7.93;;
5774;SDS011;2913;51.120;6.772;2022-09-13T05:51:23;19.27;;;8.25;;
5774;SDS011;2913;51.120;6.772;2022-09-13T05:53:52;16.75;;;8.43;;
5774;SDS011;2913;51.120;6.772;2022-09-13T05:56:20;16.30;;;9.25;;
5774;SDS011;2913;51.120;6.772;2022-09-13T05:58:48;17.30;;;8.77;;
5774;SDS011;2913;51.120;6.772;2022-09-13T06:01:15;17.88;;;9.07;;
5774;SDS011;2913;51.120;6.772;2022-09-13T06:03:51;19.45;;;8.57;;
5774;SDS011;2913;51.120;6.772;2022-09-13T06:06:21;18.92;;;9.25;;
5774;SDS011;2913;51.120;6.772;2022-09-13T06:08:50;17.77;;;9.15;;
5774;SDS011;2913;51.120;6.772;2022-09-13T06:11:20;19.52;;;9.27;;
5774;SDS011;2913;51.120;6.772;2022-09-13T06:13:45;19.40;;;9.52;;
5774;SDS011;2913;51.120;6.772;2022-09-13T06:16:11;17.80;;;8.02;;
5774;SDS011;2913;51.120;6.772;2022-09-13T06:18:41;20.75;;;8.57;;
5774;SDS011;2913;51.120;6.772;2022-09-13T06:21:11;17.30;;;8.43;;
5774;SDS011;2913;51.120;6.772;2022-09-13T06:23:48;15.98;;;8.15;;
5774;SDS011;2913;51.120;6.772;2022-09-13T06:26:16;16.45;;;8.73;;
5774;SDS011;2913;51.120;6.772;2022-09-13T06:28:47;16.88;;;9.15;;
5774;SDS011;2913;51.120;6.772;2022-09-13T06:31:20;16.60;;;8.40;;
5774;SDS011;2913;51.120;6.772;2022-09-13T06:33:47;18.42;;;8.18;;
5774;SDS011;2913;51.120;6.772;2022-09-13T06:36:17;23.40;;;9.18;;
5774;SDS011;2913;51.120;6.772;2022-09-13T06:38:44;16.63;;;8.73;;
5774;SDS011;2913;51.120;6.772;2022-09-13T06:41:14;18.58;;;8.40;;
5774;SDS011;2913;51.120;6.772;2022-09-13T06:43:46;22.85;;;8.90;;
5774;SDS011;2913;51.120;6.772;2022-09-13T06:46:13;18.23;;;8.50;;
5774;SDS011;2913;51.120;6.772;2022-09-13T06:48:44;16.02;;;8.93;;
5774;SDS011;2913;51.120;6.772;2022-09-13T06:51:14;19.83;;;8.38;;
5774;SDS011;2913;51.120;6.772;2022-09-13T06:53:41;19.25;;;8.23;;
5774;SDS011;2913;51.120;6.772;2022-09-13T06:56:17;27.65;;;9.23;;
5774;SDS011;2913;51.120;6.772;2022-09-13T06:58:43;19.33;;;8.55;;
5774;SDS011;2913;51.120;6.772;2022-09-13T07:03:46;14.30;;;8.25;;
5774;SDS011;2913;51.120;6.772;2022-09-13T07:06:20;20.30;;;9.27;;
5774;SDS011;2913;51.120;6.772;2022-09-13T07:08:48;16.63;;;7.90;;
5774;SDS011;2913;51.120;6.772;2022-09-13T07:11:16;22.83;;;8.98;;
5774;SDS011;2913;51.120;6.772;2022-09-13T07:13:49;32.92;;;9.55;;
5774;SDS011;2913;51.120;6.772;2022-09-13T07:16:15;26.13;;;8.30;;
5774;SDS011;2913;51.120;6.772;2022-09-13T07:18:43;26.75;;;8.63;;
5774;SDS011;2913;51.120;6.772;2022-09-13T07:21:16;26.50;;;9.38;;
5774;SDS011;2913;51.120;6.772;2022-09-13T07:23:45;22.90;;;8.82;;
5774;SDS011;2913;51.120;6.772;2022-09-13T07:26:15;21.75;;;8.27;;
5774;SDS011;2913;51.120;6.772;2022-09-13T07:28:42;21.60;;;9.57;;
5774;SDS011;2913;51.120;6.772;2022-09-13T07:31:13;19.65;;;8.60;;
5774;SDS011;2913;51.120;6.772;2022-09-13T07:33:47;20.30;;;8.65;;
5774;SDS011;2913;51.120;6.772;2022-09-13T07:36:19;24.35;;;8.75;;
5774;SDS011;2913;51.120;6.772;2022-09-13T07:38:51;16.00;;;8.77;;
5774;SDS011;2913;51.120;6.772;2022-09-13T07:41:17;18.13;;;8.43;;
5774;SDS011;2913;51.120;6.772;2022-09-13T07:43:49;19.67;;;9.02;;
5774;SDS011;2913;51.120;6.772;2022-09-13T07:46:21;28.33;;;9.10;;
5774;SDS011;2913;51.120;6.772;2022-09-13T07:48:51;22.90;;;7.60;;
5774;SDS011;2913;51.120;6.772;2022-09-13T07:51:26;23.92;;;8.43;;
5774;SDS011;2913;51.120;6.772;2022-09-13T07:53:54;22.38;;;8.45;;
5774;SDS011;2913;51.120;6.772;2022-09-13T07:56:22;12.63;;;7.75;;
5774;SDS011;2913;51.120;6.772;2022-09-13T07:58:52;20.83;;;7.72;;
5774;SDS011;2913;51.120;6.772;2022-09-13T08:01:35;23.15;;;8.43;;
5774;SDS011;2913;51.120;6.772;2022-09-13T08:04:08;15.35;;;8.55;;
5774;SDS011;2913;51.120;6.772;2022-09-13T08:06:40;16.08;;;7.80;;
5774;SDS011;2913;51.120;6.772;2022-09-13T08:09:08;19.08;;;7.75;;
5774;SDS011;2913;51.120;6.772;2022-09-13T08:14:04;20.05;;;8.02;;
5774;SDS011;2913;51.120;6.772;2022-09-13T08:16:31;20.48;;;7.85;;
5774;SDS011;2913;51.120;6.772;2022-09-13T08:18:58;16.35;;;7.70;;
5774;SDS011;2913;51.120;6.772;2022-09-13T08:21:30;15.35;;;7.53;;
5774;SDS011;2913;51.120;6.772;2022-09-13T08:24:03;17.52;;;7.63;;
5774;SDS011;2913;51.120;6.772;2022-09-13T08:26:32;18.20;;;8.80;;
5774;SDS011;2913;51.120;6.772;2022-09-13T08:29:00;16.50;;;7.25;;
5774;SDS011;2913;51.120;6.772;2022-09-13T08:31:29;15.65;;;7.57;;
5774;SDS011;2913;51.120;6.772;2022-09-13T08:33:56;16.95;;;7.40;;
5774;SDS011;2913;51.120;6.772;2022-09-13T08:36:24;17.52;;;7.65;;
5774;SDS011;2913;51.120;6.772;2022-09-13T08:38:51;17.58;;;7.72;;
5774;SDS011;2913;51.120;6.772;2022-09-13T08:47:06;18.35;;;7.10;;
5774;SDS011;2913;51.120;6.772;2022-09-13T08:49:51;20.67;;;7.20;;
5774;SDS011;2913;51.120;6.772;2022-09-13T08:55:53;20.52;;;6.85;;
5774;SDS011;2913;51.120;6.772;2022-09-13T09:00:39;17.23;;;6.22;;
5774;SDS011;2913;51.120;6.772;2022-09-13T09:06:25;17.63;;;6.00;;
5774;SDS011;2913;51.120;6.772;2022-09-13T09:11:49;17.92;;;6.75;;
5774;SDS011;2913;51.120;6.772;2022-09-13T09:14:23;18.33;;;6.80;;
5774;SDS011;2913;51.120;6.772;2022-09-13T09:16:57;21.90;;;6.30;;
5774;SDS011;2913;51.120;6.772;2022-09-13T09:22:15;17.33;;;6.13;;
5774;SDS011;2913;51.120;6.772;2022-09-13T09:27:17;16.52;;;6.78;;
5774;SDS011;2913;51.120;6.772;2022-09-13T09:29:44;28.33;;;6.90;;
5774;SDS011;2913;51.120;6.772;2022-09-13T09:32:20;17.33;;;6.93;;
5774;SDS011;2913;51.120;6.772;2022-09-13T09:35:15;16.88;;;6.97;;
5774;SDS011;2913;51.120;6.772;2022-09-13T09:37:41;17.90;;;6.53;;
5774;SDS011;2913;51.120;6.772;2022-09-13T09:40:16;17.92;;;6.70;;
5774;SDS011;2913;51.120;6.772;2022-09-13T09:42:43;18.27;;;6.05;;
5774;SDS011;2913;51.120;6.772;2022-09-13T09:45:26;23.08;;;6.47;;
5774;SDS011;2913;51.120;6.772;2022-09-13T09:47:54;20.73;;;7.20;;
5774;SDS011;2913;51.120;6.772;2022-09-13T09:50:29;20.50;;;6.53;;
5774;SDS011;2913;51.120;6.772;2022-09-13T09:53:44;12.80;;;6.50;;
5774;SDS011;2913;51.120;6.772;2022-09-13T09:56:19;25.75;;;6.80;;
5774;SDS011;2913;51.120;6.772;2022-09-13T09:58:49;17.35;;;7.35;;
5774;SDS011;2913;51.120;6.772;2022-09-13T10:03:57;21.58;;;6.85;;
5774;SDS011;2913;51.120;6.772;2022-09-13T10:06:46;16.80;;;7.23;;
5774;SDS011;2913;51.120;6.772;2022-09-13T10:09:18;14.02;;;7.00;;
5774;SDS011;2913;51.120;6.772;2022-09-13T10:11:51;25.60;;;7.43;;
5774;SDS011;2913;51.120;6.772;2022-09-13T10:22:22;27.27;;;7.78;;
5774;SDS011;2913;51.120;6.772;2022-09-13T10:24:48;23.80;;;8.55;;
5774;SDS011;2913;51.120;6.772;2022-09-13T10:27:35;24.42;;;7.38;;
5774;SDS011;2913;51.120;6.772;2022-09-13T10:30:04;29.48;;;8.23;;
5774;SDS011;2913;51.120;6.772;2022-09-13T10:32:31;22.33;;;8.30;;
5774;SDS011;2913;51.120;6.772;2022-09-13T10:35:05;26.02;;;7.57;;
5774;SDS011;2913;51.120;6.772;2022-09-13T10:37:45;24.20;;;7.68;;
5774;SDS011;2913;51.120;6.772;2022-09-13T10:40:15;18.42;;;7.30;;
5774;SDS011;2913;51.120;6.772;2022-09-13T10:42:49;16.27;;;6.70;;
5774;SDS011;2913;51.120;6.772;2022-09-13T10:45:26;18.90;;;6.63;;
5774;SDS011;2913;51.120;6.772;2022-09-13T10:48:03;19.48;;;7.70;;
5774;SDS011;2913;51.120;6.772;2022-09-13T10:50:36;22.85;;;7.45;;
5774;SDS011;2913;51.120;6.772;2022-09-13T10:53:02;21.27;;;6.30;;
5774;SDS011;2913;51.120;6.772;2022-09-13T10:55:33;22.83;;;5.13;;
5774;SDS011;2913;51.120;6.772;2022-09-13T11:08:38;27.73;;;5.10;;
5774;SDS011;2913;51.120;6.772;2022-09-13T11:14:25;12.65;;;5.25;;
5774;SDS011;2913;51.120;6.772;2022-09-13T11:17:02;21.80;;;6.95;;
5774;SDS011;2913;51.120;6.772;2022-09-13T11:19:57;10.23;;;4.90;;
5774;SDS011;2913;51.120;6.772;2022-09-13T11:39:31;12.30;;;5.57;;
5774;SDS011;2913;51.120;6.772;2022-09-13T11:44:48;16.33;;;6.22;;
5774;SDS011;2913;51.120;6.772;2022-09-13T11:57:51;10.63;;;5.40;;
5774;SDS011;2913;51.120;6.772;2022-09-13T12:00:25;18.55;;;5.05;;
5774;SDS011;2913;51.120;6.772;2022-09-13T12:05:30;16.48;;;5.85;;
5774;SDS011;2913;51.120;6.772;2022-09-13T12:16:32;18.83;;;4.90;;
5774;SDS011;2913;51.120;6.772;2022-09-13T12:21:37;15.88;;;4.53;;
5774;SDS011;2913;51.120;6.772;2022-09-13T12:24:07;16.02;;;5.10;;
5774;SDS011;2913;51.120;6.772;2022-09-13T12:29:33;11.82;;;5.22;;
5774;SDS011;2913;51.120;6.772;2022-09-13T12:32:10;14.00;;;5.18;;
5774;SDS011;2913;51.120;6.772;2022-09-13T12:43:06;14.18;;;4.38;;
5774;SDS011;2913;51.120;6.772;2022-09-13T12:48:46;16.20;;;4.95;;
5774;SDS011;2913;51.120;6.772;2022-09-13T12:59:31;12.75;;;4.80;;
5774;SDS011;2913;51.120;6.772;2022-09-13T13:02:21;17.77;;;5.18;;
5774;SDS011;2913;51.120;6.772;2022-09-13T13:05:02;16.70;;;5.28;;
5774;SDS011;2913;51.120;6.772;2022-09-13T13:07:48;12.95;;;5.03;;
5774;SDS011;2913;51.120;6.772;2022-09-13T13:12:54;18.55;;;4.45;;
5774;SDS011;2913;51.120;6.772;2022-09-13T13:17:56;17.50;;;5.03;;
5774;SDS011;2913;51.120;6.772;2022-09-13T13:29:04;12.80;;;5.70;;
5774;SDS011;2913;51.120;6.772;2022-09-13T13:31:40;12.23;;;4.78;;
5774;SDS011;2913;51.120;6.772;2022-09-13T13:39:12;11.43;;;5.07;;
5774;SDS011;2913;51.120;6.772;2022-09-13T13:42:10;22.10;;;5.20;;
5774;SDS011;2913;51.120;6.772;2022-09-13T13:44:55;14.82;;;5.43;;
5774;SDS011;2913;51.120;6.772;2022-09-13T13:50:03;26.25;;;5.53;;
5774;SDS011;2913;51.120;6.772;2022-09-13T13:58:03;11.10;;;4.90;;
5774;SDS011;2913;51.120;6.772;2022-09-13T14:00:49;18.00;;;5.32;;
5774;SDS011;2913;51.120;6.772;2022-09-13T14:19:20;10.27;;;5.07;;
5774;SDS011;2913;51.120;6.772;2022-09-13T14:22:20;20.42;;;6.25;;
5774;SDS011;2913;51.120;6.772;2022-09-13T14:24:48;16.73;;;6.15;;
5774;SDS011;2913;51.120;6.772;2022-09-13T14:27:25;18.88;;;5.10;;
5774;SDS011;2913;51.120;6.772;2022-09-13T14:29:59;16.15;;;4.90;;
5774;SDS011;2913;51.120;6.772;2022-09-13T14:32:29;11.77;;;5.13;;
5774;SDS011;2913;51.120;6.772;2022-09-13T14:35:04;18.00;;;5.47;;
5774;SDS011;2913;51.120;6.772;2022-09-13T14:37:32;17.20;;;5.97;;
5774;SDS011;2913;51.120;6.772;2022-09-13T14:40:01;16.77;;;5.95;;
5774;SDS011;2913;51.120;6.772;2022-09-13T14:42:43;25.42;;;5.75;;
5774;SDS011;2913;51.120;6.772;2022-09-13T14:45:13;17.23;;;5.60;;
5774;SDS011;2913;51.120;6.772;2022-09-13T14:50:26;20.13;;;6.00;;
5774;SDS011;2913;51.120;6.772;2022-09-13T14:52:56;21.05;;;6.43;;
5774;SDS011;2913;51.120;6.772;2022-09-13T14:55:28;20.20;;;5.70;;
5774;SDS011;2913;51.120;6.772;2022-09-13T14:58:01;10.90;;;6.05;;
5774;SDS011;2913;51.120;6.772;2022-09-13T15:00:31;14.80;;;5.57;;
5774;SDS011;2913;51.120;6.772;2022-09-13T15:03:11;18.98;;;6.03;;
5774;SDS011;2913;51.120;6.772;2022-09-13T15:05:40;15.45;;;5.70;;
5774;SDS011;2913;51.120;6.772;2022-09-13T15:08:24;15.43;;;5.90;;
5774;SDS011;2913;51.120;6.772;2022-09-13T15:10:55;11.88;;;5.75;;
5774;SDS011;2913;51.120;6.772;2022-09-13T15:13:21;15.02;;;5.57;;
5774;SDS011;2913;51.120;6.772;2022-09-13T15:15:47;13.57;;;5.53;;
5774;SDS011;2913;51.120;6.772;2022-09-13T15:23:49;12.32;;;5.45;;
5774;SDS011;2913;51.120;6.772;2022-09-13T15:31:19;27.67;;;6.43;;
5774;SDS011;2913;51.120;6.772;2022-09-13T15:33:46;19.10;;;5.85;;
5774;SDS011;2913;51.120;6.772;2022-09-13T15:41:54;11.65;;;5.47;;
5774;SDS011;2913;51.120;6.772;2022-09-13T15:44:21;17.83;;;5.97;;
5774;SDS011;2913;51.120;6.772;2022-09-13T15:47:29;13.13;;;6.22;;
5774;SDS011;2913;51.120;6.772;2022-09-13T15:49:40;18.92;;;6.15;;
5774;SDS011;2913;51.120;6.772;2022-09-13T15:52:13;14.90;;;6.40;;
5774;SDS011;2913;51.120;6.772;2022-09-13T15:54:41;16.83;;;5.70;;
5774;SDS011;2913;51.120;6.772;2022-09-13T15:57:13;16.02;;;6.55;;
5774;SDS011;2913;51.120;6.772;2022-09-13T15:59:43;10.85;;;6.10;;
5774;SDS011;2913;51.120;6.772;2022-09-13T16:02:22;19.42;;;6.35;;
5774;SDS011;2913;51.120;6.772;2022-09-13T16:04:53;14.75;;;5.88;;
5774;SDS011;2913;51.120;6.772;2022-09-13T16:07:19;15.73;;;6.68;;
5774;SDS011;2913;51.120;6.772;2022-09-13T16:09:46;17.92;;;6.28;;
5774;SDS011;2913;51.120;6.772;2022-09-13T16:12:12;19.25;;;6.05;;
5774;SDS011;2913;51.120;6.772;2022-09-13T16:14:38;10.45;;;6.00;;
5774;SDS011;2913;51.120;6.772;2022-09-13T16:17:10;18.95;;;6.55;;
5774;SDS011;2913;51.120;6.772;2022-09-13T16:19:45;19.27;;;6.97;;
5774;SDS011;2913;51.120;6.772;2022-09-13T16:22:13;19.40;;;6.18;;
5774;SDS011;2913;51.120;6.772;2022-09-13T16:24:39;13.68;;;6.72;;
5774;SDS011;2913;51.120;6.772;2022-09-13T16:27:04;23.77;;;6.85;;
5774;SDS011;2913;51.120;6.772;2022-09-13T16:29:30;13.18;;;5.72;;
5774;SDS011;2913;51.120;6.772;2022-09-13T16:31:56;20.33;;;6.68;;
5774;SDS011;2913;51.120;6.772;2022-09-13T16:34:23;17.58;;;6.82;;
5774;SDS011;2913;51.120;6.772;2022-09-13T16:36:50;13.90;;;6.90;;
5774;SDS011;2913;51.120;6.772;2022-09-13T16:39:15;15.65;;;6.40;;
5774;SDS011;2913;51.120;6.772;2022-09-13T16:41:44;15.63;;;6.47;;
5774;SDS011;2913;51.120;6.772;2022-09-13T16:44:14;14.70;;;6.45;;
5774;SDS011;2913;51.120;6.772;2022-09-13T16:46:40;16.63;;;7.50;;
5774;SDS011;2913;51.120;6.772;2022-09-13T16:49:09;14.15;;;6.75;;
5774;SDS011;2913;51.120;6.772;2022-09-13T16:51:35;14.10;;;6.70;;
5774;SDS011;2913;51.120;6.772;2022-09-13T16:54:01;13.70;;;7.15;;
5774;SDS011;2913;51.120;6.772;2022-09-13T16:56:29;21.50;;;6.68;;
5774;SDS011;2913;51.120;6.772;2022-09-13T16:58:55;13.52;;;7.28;;
5774;SDS011;2913;51.120;6.772;2022-09-13T17:01:25;19.25;;;7.15;;
5774;SDS011;2913;51.120;6.772;2022-09-13T17:03:52;18.60;;;7.60;;
5774;SDS011;2913;51.120;6.772;2022-09-13T17:06:18;16.13;;;8.07;;
5774;SDS011;2913;51.120;6.772;2022-09-13T17:08:48;15.10;;;8.15;;
5774;SDS011;2913;51.120;6.772;2022-09-13T17:11:22;13.57;;;8.45;;
5774;SDS011;2913;51.120;6.772;2022-09-13T17:13:54;16.58;;;8.30;;
5774;SDS011;2913;51.120;6.772;2022-09-13T17:16:22;23.70;;;8.38;;
5774;SDS011;2913;51.120;6.772;2022-09-13T17:18:50;25.92;;;9.35;;
5774;SDS011;2913;51.120;6.772;2022-09-13T17:21:16;21.50;;;8.48;;
5774;SDS011;2913;51.120;6.772;2022-09-13T17:23:45;17.55;;;9.23;;
5774;SDS011;2913;51.120;6.772;2022-09-13T17:26:12;12.25;;;8.30;;
5774;SDS011;2913;51.120;6.772;2022-09-13T17:28:38;22.25;;;9.40;;
5774;SDS011;2913;51.120;6.772;2022-09-13T17:31:06;17.63;;;9.35;;
5774;SDS011;2913;51.120;6.772;2022-09-13T17:33:34;21.88;;;8.88;;
5774;SDS011;2913;51.120;6.772;2022-09-13T17:36:05;25.40;;;9.85;;
5774;SDS011;2913;51.120;6.772;2022-09-13T17:38:35;33.10;;;9.82;;
5774;SDS011;2913;51.120;6.772;2022-09-13T17:41:04;18.80;;;10.05;;
5774;SDS011;2913;51.120;6.772;2022-09-13T17:43:40;23.13;;;10.60;;
5774;SDS011;2913;51.120;6.772;2022-09-13T17:46:08;20.23;;;9.95;;
5774;SDS011;2913;51.120;6.772;2022-09-13T17:48:40;24.10;;;10.48;;
5774;SDS011;2913;51.120;6.772;2022-09-13T17:51:10;17.95;;;10.32;;
5774;SDS011;2913;51.120;6.772;2022-09-13T17:53:45;24.02;;;10.60;;
5774;SDS011;2913;51.120;6.772;2022-09-13T17:56:15;29.48;;;10.65;;
5774;SDS011;2913;51.120;6.772;2022-09-13T17:58:44;23.10;;;10.65;;
5774;SDS011;2913;51.120;6.772;2022-09-13T18:01:11;29.63;;;11.95;;
5774;SDS011;2913;51.120;6.772;2022-09-13T18:03:37;22.13;;;11.27;;
5774;SDS011;2913;51.120;6.772;2022-09-13T18:06:03;23.92;;;11.20;;
5774;SDS011;2913;51.120;6.772;2022-09-13T18:08:31;26.45;;;12.07;;
5774;SDS011;2913;51.120;6.772;2022-09-13T18:11:10;23.73;;;11.05;;
5774;SDS011;2913;51.120;6.772;2022-09-13T18:13:42;22.90;;;11.30;;
5774;SDS011;2913;51.120;6.772;2022-09-13T18:16:11;25.48;;;11.27;;
5774;SDS011;2913;51.120;6.772;2022-09-13T18:18:39;30.45;;;11.85;;
5774;SDS011;2913;51.120;6.772;2022-09-13T18:21:10;22.38;;;11.38;;
5774;SDS011;2913;51.120;6.772;2022-09-13T18:23:38;21.00;;;12.18;;
5774;SDS011;2913;51.120;6.772;2022-09-13T18:26:05;21.30;;;11.77;;
5774;SDS011;2913;51.120;6.772;2022-09-13T18:28:35;22.27;;;12.18;;
5774;SDS011;2913;51.120;6.772;2022-09-13T18:31:01;22.20;;;11.73;;
5774;SDS011;2913;51.120;6.772;2022-09-13T18:33:35;23.63;;;12.30;;
5774;SDS011;2913;51.120;6.772;2022-09-13T18:36:02;25.52;;;12.30;;
5774;SDS011;2913;51.120;6.772;2022-09-13T18:38:32;26.48;;;11.98;;
5774;SDS011;2913;51.120;6.772;2022-09-13T18:41:15;31.30;;;12.32;;
5774;SDS011;2913;51.120;6.772;2022-09-13T18:43:45;22.58;;;12.27;;
5774;SDS011;2913;51.120;6.772;2022-09-13T18:46:13;39.80;;;14.23;;
5774;SDS011;2913;51.120;6.772;2022-09-13T18:48:42;37.92;;;13.85;;
5774;SDS011;2913;51.120;6.772;2022-09-13T18:51:10;25.40;;;13.80;;
5774;SDS011;2913;51.120;6.772;2022-09-13T18:53:39;36.22;;;14.55;;
5774;SDS011;2913;51.120;6.772;2022-09-13T18:56:06;32.17;;;14.35;;
5774;SDS011;2913;51.120;6.772;2022-09-13T18:58:33;27.58;;;13.63;;
5774;SDS011;2913;51.120;6.772;2022-09-13T19:01:03;33.88;;;14.80;;
5774;SDS011;2913;51.120;6.772;2022-09-13T19:03:35;41.95;;;15.68;;
5774;SDS011;2913;51.120;6.772;2022-09-13T19:06:11;40.50;;;15.25;;
5774;SDS011;2913;51.120;6.772;2022-09-13T19:08:38;33.88;;;17.33;;
5774;SDS011;2913;51.120;6.772;2022-09-13T19:11:05;37.05;;;15.85;;
5774;SDS011;2913;51.120;6.772;2022-09-13T19:13:31;38.55;;;16.38;;
5774;SDS011;2913;51.120;6.772;2022-09-13T19:16:01;36.08;;;15.27;;
5774;SDS011;2913;51.120;6.772;2022-09-13T19:18:28;42.08;;;15.20;;
5774;SDS011;2913;51.120;6.772;2022-09-13T19:21:05;31.75;;;14.77;;
5774;SDS011;2913;51.120;6.772;2022-09-13T19:23:39;33.40;;;15.55;;
5774;SDS011;2913;51.120;6.772;2022-09-13T19:26:10;28.52;;;14.32;;
5774;SDS011;2913;51.120;6.772;2022-09-13T19:28:46;41.60;;;14.75;;